sensor_id;sensor_type;location;lat;lon;timestamp;P1;durP1;ratioP1;P2;durP2;ratioP2
75818;SDS011;64453;51.944;9.796;2024-03-23T00:53:32;4.30;;;2.80;;
75818;SDS011;64453;51.944;9.796;2024-03-23T00:55:59;3.17;;;2.77;;
75818;SDS011;64453;51.944;9.796;2024-03-23T00:58:26;6.17;;;2.87;;
75818;SDS011;64453;51.944;9.796;2024-03-23T01:00:51;5.47;;;2.83;;
75818;SDS011;64453;51.944;9.796;2024-03-23T01:03:18;7.40;;;3.50;;
75818;SDS011;64453;51.944;9.796;2024-03-23T01:05:44;7.20;;;2.97;;
75818;SDS011;64453;51.944;9.796;2024-03-23T01:08:11;3.37;;;2.70;;
75818;SDS011;64453;51.944;9.796;2024-03-23T01:10:38;4.23;;;2.90;;
75818;SDS011;64453;51.944;9.796;2024-03-23T01:13:05;5.17;;;3.37;;
75818;SDS011;64453;51.944;9.796;2024-03-23T01:15:31;3.97;;;3.10;;
75818;SDS011;64453;51.944;9.796;2024-03-23T01:17:58;9.40;;;2.80;;
75818;SDS011;64453;51.944;9.796;2024-03-23T01:20:23;9.20;;;3.07;;
75818;SDS011;64453;51.944;9.796;2024-03-23T01:22:50;7.17;;;2.87;;
75818;SDS011;64453;51.944;9.796;2024-03-23T01:25:16;5.23;;;2.90;;
75818;SDS011;64453;51.944;9.796;2024-03-23T01:27:44;7.13;;;2.50;;
75818;SDS011;64453;51.944;9.796;2024-03-23T01:30:10;4.53;;;2.57;;
75818;SDS011;64453;51.944;9.796;2024-03-23T01:32:38;5.67;;;2.60;;
75818;SDS011;64453;51.944;9.796;2024-03-23T01:35:04;3.00;;;2.70;;
75818;SDS011;64453;51.944;9.796;2024-03-23T01:37:31;4.17;;;2.47;;
75818;SDS011;64453;51.944;9.796;2024-03-23T01:39:57;5.70;;;2.97;;
75818;SDS011;64453;51.944;9.796;2024-03-23T01:42:24;5.67;;;2.87;;
75818;SDS011;64453;51.944;9.796;2024-03-23T01:44:52;4.13;;;2.23;;
75818;SDS011;64453;51.944;9.796;2024-03-23T01:47:18;7.13;;;2.37;;
75818;SDS011;64453;51.944;9.796;2024-03-23T01:49:44;3.97;;;2.37;;
75818;SDS011;64453;51.944;9.796;2024-03-23T01:52:11;4.37;;;2.53;;
75818;SDS011;64453;51.944;9.796;2024-03-23T01:54:37;6.50;;;2.93;;
75818;SDS011;64453;51.944;9.796;2024-03-23T01:57:05;3.10;;;2.83;;
75818;SDS011;64453;51.944;9.796;2024-03-23T01:59:31;4.53;;;2.47;;
75818;SDS011;64453;51.944;9.796;2024-03-23T02:01:59;3.10;;;2.80;;
75818;SDS011;64453;51.944;9.796;2024-03-23T02:04:26;3.33;;;2.50;;
75818;SDS011;64453;51.944;9.796;2024-03-23T02:06:52;6.60;;;2.23;;
75818;SDS011;64453;51.944;9.796;2024-03-23T02:09:18;6.97;;;3.13;;
75818;SDS011;64453;51.944;9.796;2024-03-23T02:11:45;2.83;;;2.10;;
75818;SDS011;64453;51.944;9.796;2024-03-23T02:14:11;7.00;;;2.13;;
75818;SDS011;64453;51.944;9.796;2024-03-23T02:16:38;4.57;;;3.17;;
75818;SDS011;64453;51.944;9.796;2024-03-23T02:19:05;8.07;;;3.40;;
75818;SDS011;64453;51.944;9.796;2024-03-23T02:21:32;4.90;;;2.60;;
75818;SDS011;64453;51.944;9.796;2024-03-23T02:23:59;3.00;;;2.80;;
75818;SDS011;64453;51.944;9.796;2024-03-23T02:26:26;4.57;;;3.00;;
75818;SDS011;64453;51.944;9.796;2024-03-23T02:28:52;4.03;;;2.70;;
75818;SDS011;64453;51.944;9.796;2024-03-23T02:31:19;3.60;;;3.30;;
75818;SDS011;64453;51.944;9.796;2024-03-23T02:33:45;5.57;;;3.00;;
75818;SDS011;64453;51.944;9.796;2024-03-23T02:36:12;7.63;;;3.47;;
75818;SDS011;64453;51.944;9.796;2024-03-23T02:38:37;5.40;;;2.60;;
75818;SDS011;64453;51.944;9.796;2024-03-23T02:41:05;3.93;;;2.73;;
75818;SDS011;64453;51.944;9.796;2024-03-23T02:43:31;5.87;;;3.07;;
75818;SDS011;64453;51.944;9.796;2024-03-23T02:45:58;5.23;;;3.00;;
75818;SDS011;64453;51.944;9.796;2024-03-23T02:48:24;3.50;;;2.33;;
75818;SDS011;64453;51.944;9.796;2024-03-23T02:50:50;4.03;;;2.77;;
75818;SDS011;64453;51.944;9.796;2024-03-23T02:53:17;6.07;;;3.30;;
75818;SDS011;64453;51.944;9.796;2024-03-23T02:55:44;4.20;;;2.83;;
75818;SDS011;64453;51.944;9.796;2024-03-23T02:58:11;6.23;;;2.90;;
75818;SDS011;64453;51.944;9.796;2024-03-23T03:00:37;3.00;;;2.20;;
75818;SDS011;64453;51.944;9.796;2024-03-23T03:03:03;3.77;;;3.07;;
75818;SDS011;64453;51.944;9.796;2024-03-23T03:05:32;4.87;;;3.00;;
75818;SDS011;64453;51.944;9.796;2024-03-23T03:07:58;5.53;;;3.20;;
75818;SDS011;64453;51.944;9.796;2024-03-23T03:10:24;5.57;;;2.87;;
75818;SDS011;64453;51.944;9.796;2024-03-23T03:12:50;5.40;;;3.00;;
75818;SDS011;64453;51.944;9.796;2024-03-23T03:15:18;4.13;;;2.60;;
75818;SDS011;64453;51.944;9.796;2024-03-23T03:17:44;4.27;;;2.20;;
75818;SDS011;64453;51.944;9.796;2024-03-23T03:20:11;3.43;;;1.87;;
75818;SDS011;64453;51.944;9.796;2024-03-23T03:22:39;3.47;;;1.90;;
75818;SDS011;64453;51.944;9.796;2024-03-23T03:25:06;8.47;;;2.73;;
75818;SDS011;64453;51.944;9.796;2024-03-23T03:27:32;4.10;;;2.03;;
75818;SDS011;64453;51.944;9.796;2024-03-23T03:29:59;4.87;;;2.30;;
75818;SDS011;64453;51.944;9.796;2024-03-23T03:32:28;3.63;;;2.60;;
75818;SDS011;64453;51.944;9.796;2024-03-23T03:34:55;5.53;;;2.90;;
75818;SDS011;64453;51.944;9.796;2024-03-23T03:37:21;3.23;;;2.90;;
75818;SDS011;64453;51.944;9.796;2024-03-23T03:39:48;4.10;;;2.43;;
75818;SDS011;64453;51.944;9.796;2024-03-23T03:42:14;6.10;;;2.90;;
75818;SDS011;64453;51.944;9.796;2024-03-23T03:44:41;6.80;;;3.23;;
75818;SDS011;64453;51.944;9.796;2024-03-23T03:47:06;6.43;;;3.40;;
75818;SDS011;64453;51.944;9.796;2024-03-23T03:49:34;3.30;;;3.00;;
75818;SDS011;64453;51.944;9.796;2024-03-23T03:52:00;7.30;;;3.03;;
75818;SDS011;64453;51.944;9.796;2024-03-23T03:54:27;6.37;;;3.03;;
75818;SDS011;64453;51.944;9.796;2024-03-23T03:56:53;3.37;;;1.97;;
75818;SDS011;64453;51.944;9.796;2024-03-23T03:59:20;4.03;;;2.67;;
75818;SDS011;64453;51.944;9.796;2024-03-23T04:01:46;5.07;;;3.47;;
75818;SDS011;64453;51.944;9.796;2024-03-23T04:04:12;4.10;;;2.73;;
75818;SDS011;64453;51.944;9.796;2024-03-23T04:06:40;5.30;;;2.10;;
75818;SDS011;64453;51.944;9.796;2024-03-23T04:09:07;1.80;;;1.60;;
75818;SDS011;64453;51.944;9.796;2024-03-23T04:11:33;6.40;;;2.27;;
75818;SDS011;64453;51.944;9.796;2024-03-23T04:13:59;5.40;;;1.10;;
75818;SDS011;64453;51.944;9.796;2024-03-23T04:16:26;6.73;;;1.57;;
75818;SDS011;64453;51.944;9.796;2024-03-23T04:18:53;1.37;;;1.10;;
75818;SDS011;64453;51.944;9.796;2024-03-23T04:21:19;4.83;;;1.60;;
75818;SDS011;64453;51.944;9.796;2024-03-23T04:23:49;3.43;;;2.13;;
75818;SDS011;64453;51.944;9.796;2024-03-23T04:26:15;4.23;;;2.00;;
75818;SDS011;64453;51.944;9.796;2024-03-23T04:28:42;3.20;;;1.43;;
75818;SDS011;64453;51.944;9.796;2024-03-23T04:31:09;2.47;;;1.50;;
75818;SDS011;64453;51.944;9.796;2024-03-23T04:33:35;2.70;;;1.70;;
75818;SDS011;64453;51.944;9.796;2024-03-23T04:36:02;2.20;;;1.40;;
75818;SDS011;64453;51.944;9.796;2024-03-23T04:38:29;3.47;;;1.73;;
75818;SDS011;64453;51.944;9.796;2024-03-23T04:40:57;3.70;;;1.40;;
75818;SDS011;64453;51.944;9.796;2024-03-23T04:43:25;2.93;;;1.60;;
75818;SDS011;64453;51.944;9.796;2024-03-23T04:45:52;4.37;;;2.07;;
75818;SDS011;64453;51.944;9.796;2024-03-23T04:48:19;2.77;;;1.30;;
75818;SDS011;64453;51.944;9.796;2024-03-23T04:50:47;1.47;;;1.13;;
75818;SDS011;64453;51.944;9.796;2024-03-23T04:53:15;6.87;;;1.97;;
75818;SDS011;64453;51.944;9.796;2024-03-23T04:55:42;3.30;;;1.20;;
75818;SDS011;64453;51.944;9.796;2024-03-23T04:58:10;3.33;;;1.40;;
75818;SDS011;64453;51.944;9.796;2024-03-23T05:00:36;1.23;;;1.10;;
75818;SDS011;64453;51.944;9.796;2024-03-23T05:03:03;3.93;;;1.50;;
75818;SDS011;64453;51.944;9.796;2024-03-23T05:05:30;3.27;;;1.53;;
75818;SDS011;64453;51.944;9.796;2024-03-23T05:07:56;6.90;;;1.60;;
75818;SDS011;64453;51.944;9.796;2024-03-23T05:10:23;4.30;;;1.33;;
75818;SDS011;64453;51.944;9.796;2024-03-23T05:12:49;2.43;;;0.97;;
75818;SDS011;64453;51.944;9.796;2024-03-23T05:15:18;6.03;;;1.37;;
75818;SDS011;64453;51.944;9.796;2024-03-23T05:17:43;2.30;;;1.37;;
75818;SDS011;64453;51.944;9.796;2024-03-23T05:20:10;3.70;;;1.50;;
75818;SDS011;64453;51.944;9.796;2024-03-23T05:22:37;2.47;;;1.10;;
75818;SDS011;64453;51.944;9.796;2024-03-23T05:25:04;2.33;;;1.47;;
75818;SDS011;64453;51.944;9.796;2024-03-23T05:27:31;2.80;;;1.03;;
75818;SDS011;64453;51.944;9.796;2024-03-23T05:29:58;3.57;;;1.23;;
75818;SDS011;64453;51.944;9.796;2024-03-23T05:32:26;2.50;;;1.30;;
75818;SDS011;64453;51.944;9.796;2024-03-23T05:34:53;1.80;;;0.90;;
75818;SDS011;64453;51.944;9.796;2024-03-23T05:37:21;2.10;;;1.50;;
75818;SDS011;64453;51.944;9.796;2024-03-23T05:39:47;1.50;;;1.40;;
75818;SDS011;64453;51.944;9.796;2024-03-23T05:42:15;3.33;;;1.23;;
75818;SDS011;64453;51.944;9.796;2024-03-23T05:44:42;1.43;;;1.23;;
75818;SDS011;64453;51.944;9.796;2024-03-23T05:47:10;2.23;;;1.17;;
75818;SDS011;64453;51.944;9.796;2024-03-23T05:49:39;4.93;;;1.67;;
75818;SDS011;64453;51.944;9.796;2024-03-23T05:52:06;2.23;;;0.90;;
75818;SDS011;64453;51.944;9.796;2024-03-23T05:54:32;4.10;;;1.13;;
75818;SDS011;64453;51.944;9.796;2024-03-23T05:56:59;1.90;;;1.53;;
75818;SDS011;64453;51.944;9.796;2024-03-23T05:59:25;2.50;;;1.40;;
75818;SDS011;64453;51.944;9.796;2024-03-23T06:01:52;4.23;;;1.53;;
75818;SDS011;64453;51.944;9.796;2024-03-23T06:04:18;8.00;;;1.50;;
75818;SDS011;64453;51.944;9.796;2024-03-23T06:06:47;3.03;;;1.30;;
75818;SDS011;64453;51.944;9.796;2024-03-23T06:09:13;2.73;;;1.10;;
75818;SDS011;64453;51.944;9.796;2024-03-23T06:11:40;2.53;;;0.83;;
75818;SDS011;64453;51.944;9.796;2024-03-23T06:14:06;5.83;;;1.33;;
75818;SDS011;64453;51.944;9.796;2024-03-23T06:16:32;3.97;;;1.20;;
75818;SDS011;64453;51.944;9.796;2024-03-23T06:18:58;3.03;;;1.13;;
75818;SDS011;64453;51.944;9.796;2024-03-23T06:21:25;2.63;;;0.90;;
75818;SDS011;64453;51.944;9.796;2024-03-23T06:23:52;0.93;;;0.93;;
75818;SDS011;64453;51.944;9.796;2024-03-23T06:26:19;5.93;;;1.30;;
75818;SDS011;64453;51.944;9.796;2024-03-23T06:28:46;3.60;;;1.13;;
75818;SDS011;64453;51.944;9.796;2024-03-23T06:31:13;1.10;;;0.80;;
75818;SDS011;64453;51.944;9.796;2024-03-23T06:33:39;3.17;;;1.20;;
75818;SDS011;64453;51.944;9.796;2024-03-23T06:36:10;2.93;;;0.90;;
75818;SDS011;64453;51.944;9.796;2024-03-23T06:38:36;1.90;;;0.80;;
75818;SDS011;64453;51.944;9.796;2024-03-23T06:41:04;2.63;;;1.10;;
75818;SDS011;64453;51.944;9.796;2024-03-23T06:43:30;1.90;;;0.93;;
75818;SDS011;64453;51.944;9.796;2024-03-23T06:45:57;3.97;;;0.80;;
75818;SDS011;64453;51.944;9.796;2024-03-23T06:48:23;0.80;;;0.80;;
75818;SDS011;64453;51.944;9.796;2024-03-23T06:50:54;2.20;;;0.93;;
75818;SDS011;64453;51.944;9.796;2024-03-23T06:53:21;1.83;;;0.63;;
75818;SDS011;64453;51.944;9.796;2024-03-23T06:55:49;1.37;;;0.60;;
75818;SDS011;64453;51.944;9.796;2024-03-23T06:58:18;1.03;;;0.50;;
75818;SDS011;64453;51.944;9.796;2024-03-23T07:00:45;1.77;;;0.67;;
75818;SDS011;64453;51.944;9.796;2024-03-23T07:03:11;0.77;;;0.40;;
75818;SDS011;64453;51.944;9.796;2024-03-23T07:05:38;0.97;;;0.83;;
75818;SDS011;64453;51.944;9.796;2024-03-23T07:08:04;0.67;;;0.60;;
75818;SDS011;64453;51.944;9.796;2024-03-23T07:10:32;0.73;;;0.40;;
75818;SDS011;64453;51.944;9.796;2024-03-23T07:12:58;1.50;;;0.60;;
75818;SDS011;64453;51.944;9.796;2024-03-23T07:15:26;3.00;;;0.83;;
75818;SDS011;64453;51.944;9.796;2024-03-23T07:17:52;1.13;;;0.83;;
75818;SDS011;64453;51.944;9.796;2024-03-23T07:20:18;2.13;;;0.73;;
75818;SDS011;64453;51.944;9.796;2024-03-23T07:22:45;2.10;;;0.97;;
75818;SDS011;64453;51.944;9.796;2024-03-23T07:25:12;3.33;;;1.20;;
75818;SDS011;64453;51.944;9.796;2024-03-23T07:27:38;1.20;;;1.10;;
75818;SDS011;64453;51.944;9.796;2024-03-23T07:30:05;2.67;;;1.13;;
75818;SDS011;64453;51.944;9.796;2024-03-23T07:32:35;1.37;;;0.83;;
75818;SDS011;64453;51.944;9.796;2024-03-23T07:35:01;1.23;;;1.10;;
75818;SDS011;64453;51.944;9.796;2024-03-23T07:37:29;2.07;;;1.17;;
75818;SDS011;64453;51.944;9.796;2024-03-23T07:39:56;2.60;;;0.90;;
75818;SDS011;64453;51.944;9.796;2024-03-23T07:42:22;2.60;;;1.13;;
75818;SDS011;64453;51.944;9.796;2024-03-23T07:44:51;1.90;;;0.87;;
75818;SDS011;64453;51.944;9.796;2024-03-23T07:47:17;1.53;;;0.97;;
75818;SDS011;64453;51.944;9.796;2024-03-23T07:49:45;1.70;;;1.07;;
75818;SDS011;64453;51.944;9.796;2024-03-23T07:52:11;2.17;;;1.30;;
75818;SDS011;64453;51.944;9.796;2024-03-23T07:54:38;1.43;;;0.87;;
75818;SDS011;64453;51.944;9.796;2024-03-23T07:57:04;3.57;;;1.13;;
75818;SDS011;64453;51.944;9.796;2024-03-23T07:59:32;1.70;;;1.37;;
75818;SDS011;64453;51.944;9.796;2024-03-23T08:01:59;2.97;;;1.10;;
75818;SDS011;64453;51.944;9.796;2024-03-23T08:04:24;3.00;;;1.43;;
75818;SDS011;64453;51.944;9.796;2024-03-23T08:06:54;4.30;;;1.17;;
75818;SDS011;64453;51.944;9.796;2024-03-23T08:09:20;2.10;;;1.20;;
75818;SDS011;64453;51.944;9.796;2024-03-23T08:11:47;1.67;;;1.10;;
75818;SDS011;64453;51.944;9.796;2024-03-23T08:14:13;3.47;;;1.90;;
75818;SDS011;64453;51.944;9.796;2024-03-23T08:16:40;5.30;;;1.93;;
75818;SDS011;64453;51.944;9.796;2024-03-23T08:19:06;6.80;;;1.93;;
75818;SDS011;64453;51.944;9.796;2024-03-23T08:21:33;3.33;;;1.63;;
75818;SDS011;64453;51.944;9.796;2024-03-23T08:24:00;9.00;;;2.00;;
75818;SDS011;64453;51.944;9.796;2024-03-23T08:26:28;10.13;;;1.67;;
75818;SDS011;64453;51.944;9.796;2024-03-23T08:28:54;2.80;;;1.77;;
75818;SDS011;64453;51.944;9.796;2024-03-23T08:31:20;2.93;;;2.30;;
75818;SDS011;64453;51.944;9.796;2024-03-23T08:33:46;5.00;;;2.70;;
75818;SDS011;64453;51.944;9.796;2024-03-23T08:36:13;5.63;;;1.70;;
75818;SDS011;64453;51.944;9.796;2024-03-23T08:38:39;4.63;;;2.47;;
75818;SDS011;64453;51.944;9.796;2024-03-23T08:41:08;6.10;;;2.20;;
75818;SDS011;64453;51.944;9.796;2024-03-23T08:43:36;5.60;;;1.70;;
75818;SDS011;64453;51.944;9.796;2024-03-23T08:46:05;6.97;;;2.37;;
75818;SDS011;64453;51.944;9.796;2024-03-23T08:48:32;4.23;;;2.10;;
75818;SDS011;64453;51.944;9.796;2024-03-23T08:51:01;2.67;;;2.00;;
75818;SDS011;64453;51.944;9.796;2024-03-23T08:53:28;9.07;;;2.50;;
75818;SDS011;64453;51.944;9.796;2024-03-23T08:55:55;8.97;;;2.40;;
75818;SDS011;64453;51.944;9.796;2024-03-23T08:58:24;6.03;;;2.47;;
75818;SDS011;64453;51.944;9.796;2024-03-23T09:00:53;4.77;;;2.77;;
75818;SDS011;64453;51.944;9.796;2024-03-23T09:03:21;4.13;;;2.73;;
75818;SDS011;64453;51.944;9.796;2024-03-23T09:05:48;5.70;;;2.90;;
75818;SDS011;64453;51.944;9.796;2024-03-23T09:08:14;7.57;;;2.70;;
75818;SDS011;64453;51.944;9.796;2024-03-23T09:10:41;9.83;;;2.87;;
75818;SDS011;64453;51.944;9.796;2024-03-23T09:13:08;10.20;;;3.00;;
75818;SDS011;64453;51.944;9.796;2024-03-23T09:15:36;12.77;;;3.97;;
75818;SDS011;64453;51.944;9.796;2024-03-23T09:18:12;6.10;;;2.80;;
75818;SDS011;64453;51.944;9.796;2024-03-23T09:20:39;9.20;;;4.17;;
75818;SDS011;64453;51.944;9.796;2024-03-23T09:23:04;6.90;;;3.90;;
75818;SDS011;64453;51.944;9.796;2024-03-23T09:25:31;7.13;;;3.13;;
75818;SDS011;64453;51.944;9.796;2024-03-23T09:27:57;7.13;;;4.23;;
75818;SDS011;64453;51.944;9.796;2024-03-23T09:30:24;9.30;;;3.77;;
75818;SDS011;64453;51.944;9.796;2024-03-23T09:32:51;12.63;;;3.50;;
75818;SDS011;64453;51.944;9.796;2024-03-23T09:35:18;5.57;;;3.60;;
75818;SDS011;64453;51.944;9.796;2024-03-23T09:37:44;9.30;;;4.57;;
75818;SDS011;64453;51.944;9.796;2024-03-23T09:40:11;14.43;;;4.90;;
75818;SDS011;64453;51.944;9.796;2024-03-23T09:42:37;13.30;;;4.70;;
75818;SDS011;64453;51.944;9.796;2024-03-23T09:45:05;9.67;;;4.07;;
75818;SDS011;64453;51.944;9.796;2024-03-23T09:47:36;7.47;;;3.43;;
75818;SDS011;64453;51.944;9.796;2024-03-23T09:50:05;7.10;;;3.70;;
75818;SDS011;64453;51.944;9.796;2024-03-23T09:52:32;7.17;;;3.60;;
75818;SDS011;64453;51.944;9.796;2024-03-23T09:54:59;5.93;;;3.57;;
75818;SDS011;64453;51.944;9.796;2024-03-23T09:57:25;9.37;;;3.87;;
75818;SDS011;64453;51.944;9.796;2024-03-23T09:59:52;6.47;;;3.40;;
75818;SDS011;64453;51.944;9.796;2024-03-23T10:02:19;8.70;;;3.90;;
75818;SDS011;64453;51.944;9.796;2024-03-23T10:04:47;4.50;;;3.47;;
75818;SDS011;64453;51.944;9.796;2024-03-23T10:07:15;11.97;;;3.90;;
75818;SDS011;64453;51.944;9.796;2024-03-23T10:09:45;6.30;;;3.33;;
75818;SDS011;64453;51.944;9.796;2024-03-23T10:12:12;13.03;;;4.00;;
75818;SDS011;64453;51.944;9.796;2024-03-23T10:14:41;10.30;;;3.60;;
75818;SDS011;64453;51.944;9.796;2024-03-23T10:17:11;12.33;;;3.80;;
75818;SDS011;64453;51.944;9.796;2024-03-23T10:19:40;7.30;;;3.50;;
75818;SDS011;64453;51.944;9.796;2024-03-23T10:22:08;12.93;;;3.30;;
75818;SDS011;64453;51.944;9.796;2024-03-23T10:24:37;8.20;;;3.60;;
75818;SDS011;64453;51.944;9.796;2024-03-23T10:27:03;6.43;;;2.80;;
75818;SDS011;64453;51.944;9.796;2024-03-23T10:29:30;7.33;;;3.03;;
75818;SDS011;64453;51.944;9.796;2024-03-23T10:32:07;11.63;;;3.07;;
75818;SDS011;64453;51.944;9.796;2024-03-23T10:34:35;7.37;;;3.20;;
75818;SDS011;64453;51.944;9.796;2024-03-23T10:37:02;5.57;;;3.13;;
75818;SDS011;64453;51.944;9.796;2024-03-23T10:39:33;7.33;;;3.00;;
75818;SDS011;64453;51.944;9.796;2024-03-23T10:42:03;10.87;;;3.27;;
75818;SDS011;64453;51.944;9.796;2024-03-23T10:44:32;11.70;;;2.97;;
75818;SDS011;64453;51.944;9.796;2024-03-23T10:46:59;6.43;;;2.57;;
75818;SDS011;64453;51.944;9.796;2024-03-23T10:49:27;10.00;;;2.90;;
75818;SDS011;64453;51.944;9.796;2024-03-23T10:51:55;8.80;;;2.83;;
75818;SDS011;64453;51.944;9.796;2024-03-23T10:54:23;3.13;;;2.20;;
75818;SDS011;64453;51.944;9.796;2024-03-23T10:56:50;6.93;;;2.30;;
75818;SDS011;64453;51.944;9.796;2024-03-23T10:59:24;7.43;;;2.47;;
75818;SDS011;64453;51.944;9.796;2024-03-23T11:01:54;3.80;;;1.80;;
75818;SDS011;64453;51.944;9.796;2024-03-23T11:04:31;3.83;;;1.80;;
75818;SDS011;64453;51.944;9.796;2024-03-23T11:06:59;4.20;;;2.20;;
75818;SDS011;64453;51.944;9.796;2024-03-23T11:09:38;5.57;;;2.47;;
75818;SDS011;64453;51.944;9.796;2024-03-23T11:12:15;4.67;;;1.40;;
75818;SDS011;64453;51.944;9.796;2024-03-23T11:14:53;1.10;;;0.60;;
75818;SDS011;64453;51.944;9.796;2024-03-23T11:17:21;1.37;;;0.80;;
75818;SDS011;64453;51.944;9.796;2024-03-23T11:19:52;0.90;;;0.90;;
75818;SDS011;64453;51.944;9.796;2024-03-23T11:22:41;0.50;;;0.50;;
75818;SDS011;64453;51.944;9.796;2024-03-23T11:25:15;1.27;;;0.80;;
75818;SDS011;64453;51.944;9.796;2024-03-23T11:27:43;0.87;;;0.80;;
75818;SDS011;64453;51.944;9.796;2024-03-23T11:30:13;0.63;;;0.63;;
75818;SDS011;64453;51.944;9.796;2024-03-23T11:32:42;1.10;;;0.60;;
75818;SDS011;64453;51.944;9.796;2024-03-23T11:35:10;5.70;;;0.80;;
75818;SDS011;64453;51.944;9.796;2024-03-23T11:38:00;3.83;;;1.20;;
75818;SDS011;64453;51.944;9.796;2024-03-23T11:40:31;3.30;;;1.17;;
75818;SDS011;64453;51.944;9.796;2024-03-23T11:42:58;1.17;;;1.00;;
75818;SDS011;64453;51.944;9.796;2024-03-23T11:45:28;1.20;;;1.10;;
75818;SDS011;64453;51.944;9.796;2024-03-23T11:48:04;2.10;;;1.10;;
75818;SDS011;64453;51.944;9.796;2024-03-23T11:50:33;0.80;;;0.80;;
75818;SDS011;64453;51.944;9.796;2024-03-23T11:53:07;1.40;;;1.30;;
75818;SDS011;64453;51.944;9.796;2024-03-23T11:55:41;0.70;;;0.70;;
75818;SDS011;64453;51.944;9.796;2024-03-23T11:58:12;1.23;;;0.90;;
75818;SDS011;64453;51.944;9.796;2024-03-23T12:00:41;1.70;;;0.93;;
75818;SDS011;64453;51.944;9.796;2024-03-23T12:03:07;0.83;;;0.80;;
75818;SDS011;64453;51.944;9.796;2024-03-23T12:05:36;2.80;;;1.07;;
75818;SDS011;64453;51.944;9.796;2024-03-23T12:08:16;1.57;;;1.20;;
75818;SDS011;64453;51.944;9.796;2024-03-23T12:10:51;2.03;;;1.07;;
75818;SDS011;64453;51.944;9.796;2024-03-23T12:13:19;3.47;;;1.20;;
75818;SDS011;64453;51.944;9.796;2024-03-23T12:15:48;1.57;;;1.00;;
75818;SDS011;64453;51.944;9.796;2024-03-23T12:18:16;6.80;;;1.63;;
75818;SDS011;64453;51.944;9.796;2024-03-23T12:20:43;2.10;;;1.43;;
75818;SDS011;64453;51.944;9.796;2024-03-23T12:23:09;4.13;;;1.73;;
75818;SDS011;64453;51.944;9.796;2024-03-23T12:25:37;1.90;;;1.80;;
75818;SDS011;64453;51.944;9.796;2024-03-23T12:28:04;5.40;;;1.30;;
75818;SDS011;64453;51.944;9.796;2024-03-23T12:30:33;3.70;;;1.70;;
75818;SDS011;64453;51.944;9.796;2024-03-23T12:33:01;2.07;;;1.13;;
75818;SDS011;64453;51.944;9.796;2024-03-23T12:35:29;2.87;;;1.50;;
75818;SDS011;64453;51.944;9.796;2024-03-23T12:37:55;1.40;;;1.30;;
75818;SDS011;64453;51.944;9.796;2024-03-23T12:40:22;2.00;;;1.07;;
75818;SDS011;64453;51.944;9.796;2024-03-23T12:42:48;2.20;;;1.40;;
75818;SDS011;64453;51.944;9.796;2024-03-23T12:45:15;1.43;;;1.30;;
75818;SDS011;64453;51.944;9.796;2024-03-23T12:47:41;2.57;;;1.27;;
75818;SDS011;64453;51.944;9.796;2024-03-23T12:50:09;4.50;;;1.37;;
75818;SDS011;64453;51.944;9.796;2024-03-23T12:52:35;6.50;;;2.30;;
75818;SDS011;64453;51.944;9.796;2024-03-23T12:55:02;3.77;;;2.13;;
75818;SDS011;64453;51.944;9.796;2024-03-23T12:57:30;1.70;;;1.20;;
75818;SDS011;64453;51.944;9.796;2024-03-23T12:59:57;1.53;;;1.00;;
75818;SDS011;64453;51.944;9.796;2024-03-23T13:02:24;0.90;;;0.90;;
75818;SDS011;64453;51.944;9.796;2024-03-23T13:04:51;3.53;;;1.07;;
75818;SDS011;64453;51.944;9.796;2024-03-23T13:07:19;0.97;;;0.73;;
75818;SDS011;64453;51.944;9.796;2024-03-23T13:09:49;1.67;;;0.70;;
75818;SDS011;64453;51.944;9.796;2024-03-23T13:12:16;1.50;;;1.20;;
75818;SDS011;64453;51.944;9.796;2024-03-23T13:14:43;1.47;;;1.37;;
75818;SDS011;64453;51.944;9.796;2024-03-23T13:17:09;0.83;;;0.80;;
75818;SDS011;64453;51.944;9.796;2024-03-23T13:19:36;1.90;;;1.20;;
75818;SDS011;64453;51.944;9.796;2024-03-23T13:22:02;1.43;;;0.70;;
75818;SDS011;64453;51.944;9.796;2024-03-23T13:24:31;1.37;;;1.17;;
75818;SDS011;64453;51.944;9.796;2024-03-23T13:26:57;3.70;;;1.33;;
75818;SDS011;64453;51.944;9.796;2024-03-23T13:29:24;1.43;;;0.97;;
75818;SDS011;64453;51.944;9.796;2024-03-23T13:31:51;3.30;;;0.70;;
75818;SDS011;64453;51.944;9.796;2024-03-23T13:34:18;2.40;;;1.60;;
75818;SDS011;64453;51.944;9.796;2024-03-23T13:36:44;3.00;;;1.60;;
75818;SDS011;64453;51.944;9.796;2024-03-23T13:39:13;2.40;;;1.33;;
75818;SDS011;64453;51.944;9.796;2024-03-23T13:41:43;2.83;;;1.23;;
75818;SDS011;64453;51.944;9.796;2024-03-23T13:44:10;1.97;;;0.90;;
75818;SDS011;64453;51.944;9.796;2024-03-23T13:46:39;0.70;;;0.63;;
75818;SDS011;64453;51.944;9.796;2024-03-23T13:49:08;1.43;;;0.93;;
75818;SDS011;64453;51.944;9.796;2024-03-23T13:51:51;3.60;;;1.27;;
75818;SDS011;64453;51.944;9.796;2024-03-23T13:54:17;3.43;;;1.60;;
75818;SDS011;64453;51.944;9.796;2024-03-23T13:56:46;2.60;;;1.97;;
75818;SDS011;64453;51.944;9.796;2024-03-23T13:59:14;8.33;;;3.80;;
75818;SDS011;64453;51.944;9.796;2024-03-23T14:01:40;2.80;;;1.67;;
75818;SDS011;64453;51.944;9.796;2024-03-23T14:04:07;2.40;;;1.27;;
75818;SDS011;64453;51.944;9.796;2024-03-23T14:06:34;1.43;;;1.17;;
75818;SDS011;64453;51.944;9.796;2024-03-23T14:08:59;1.63;;;1.40;;
75818;SDS011;64453;51.944;9.796;2024-03-23T14:11:28;4.00;;;1.30;;
75818;SDS011;64453;51.944;9.796;2024-03-23T14:13:55;2.20;;;1.60;;
75818;SDS011;64453;51.944;9.796;2024-03-23T14:16:22;3.33;;;1.23;;
75818;SDS011;64453;51.944;9.796;2024-03-23T14:18:48;2.30;;;2.10;;
75818;SDS011;64453;51.944;9.796;2024-03-23T14:21:15;1.97;;;1.77;;
75818;SDS011;64453;51.944;9.796;2024-03-23T14:23:40;2.50;;;1.50;;
75818;SDS011;64453;51.944;9.796;2024-03-23T14:26:07;1.70;;;1.60;;
75818;SDS011;64453;51.944;9.796;2024-03-23T14:28:33;2.63;;;2.43;;
75818;SDS011;64453;51.944;9.796;2024-03-23T14:31:02;2.67;;;1.80;;
75818;SDS011;64453;51.944;9.796;2024-03-23T14:33:32;2.40;;;1.23;;
75818;SDS011;64453;51.944;9.796;2024-03-23T14:35:59;5.10;;;0.90;;
75818;SDS011;64453;51.944;9.796;2024-03-23T14:38:24;1.13;;;1.03;;
75818;SDS011;64453;51.944;9.796;2024-03-23T14:40:52;1.40;;;1.30;;
75818;SDS011;64453;51.944;9.796;2024-03-23T14:43:18;1.13;;;1.13;;
75818;SDS011;64453;51.944;9.796;2024-03-23T14:45:49;1.50;;;1.40;;
75818;SDS011;64453;51.944;9.796;2024-03-23T14:48:33;1.20;;;1.10;;
75818;SDS011;64453;51.944;9.796;2024-03-23T14:51:00;1.73;;;1.40;;
75818;SDS011;64453;51.944;9.796;2024-03-23T14:53:29;2.43;;;1.50;;
75818;SDS011;64453;51.944;9.796;2024-03-23T14:55:56;1.87;;;1.23;;
75818;SDS011;64453;51.944;9.796;2024-03-23T14:58:22;1.50;;;0.70;;
75818;SDS011;64453;51.944;9.796;2024-03-23T15:00:49;4.10;;;0.83;;
75818;SDS011;64453;51.944;9.796;2024-03-23T15:03:18;6.80;;;2.37;;
75818;SDS011;64453;51.944;9.796;2024-03-23T15:05:51;3.23;;;0.90;;
75818;SDS011;64453;51.944;9.796;2024-03-23T15:08:18;3.03;;;1.03;;
75818;SDS011;64453;51.944;9.796;2024-03-23T15:10:45;2.40;;;0.90;;
75818;SDS011;64453;51.944;9.796;2024-03-23T15:13:11;4.33;;;1.00;;
75818;SDS011;64453;51.944;9.796;2024-03-23T15:15:38;2.13;;;1.27;;
75818;SDS011;64453;51.944;9.796;2024-03-23T15:18:06;1.73;;;1.63;;
75818;SDS011;64453;51.944;9.796;2024-03-23T15:20:34;2.13;;;1.83;;
75818;SDS011;64453;51.944;9.796;2024-03-23T15:23:01;1.00;;;0.90;;
75818;SDS011;64453;51.944;9.796;2024-03-23T15:25:28;0.70;;;0.70;;
75818;SDS011;64453;51.944;9.796;2024-03-23T15:27:54;1.47;;;1.00;;
75818;SDS011;64453;51.944;9.796;2024-03-23T15:30:21;0.93;;;0.90;;
75818;SDS011;64453;51.944;9.796;2024-03-23T15:32:47;1.10;;;1.10;;
75818;SDS011;64453;51.944;9.796;2024-03-23T15:35:13;1.00;;;1.00;;
75818;SDS011;64453;51.944;9.796;2024-03-23T15:37:41;1.37;;;1.23;;
75818;SDS011;64453;51.944;9.796;2024-03-23T15:40:08;1.90;;;1.10;;
75818;SDS011;64453;51.944;9.796;2024-03-23T15:42:36;4.70;;;4.20;;